createdAt,value
2018-07-20T00:00:57.644Z,0.00
2018-07-20T00:01:57.535Z,0.00
2018-07-20T00:02:57.447Z,0.00
2018-07-20T00:03:57.342Z,0.00
2018-07-20T00:04:57.251Z,0.00
2018-07-20T00:05:57.147Z,0.00
2018-07-20T00:06:57.057Z,0.00
2018-07-20T00:07:57.007Z,0.00
2018-07-20T00:08:56.862Z,0.00
2018-07-20T00:09:56.761Z,0.00
2018-07-20T00:10:56.671Z,0.00
2018-07-20T00:11:56.569Z,0.00
2018-07-20T00:12:56.478Z,0.00
2018-07-20T00:13:56.384Z,0.00
2018-07-20T00:14:56.281Z,0.00
2018-07-20T00:15:56.189Z,0.00
2018-07-20T00:16:56.088Z,0.00
2018-07-20T00:17:55.998Z,0.00
2018-07-20T00:18:55.895Z,0.00
2018-07-20T00:19:55.806Z,0.00
2018-07-20T00:20:55.699Z,0.00
2018-07-20T00:21:55.611Z,0.00
2018-07-20T00:22:55.760Z,0.00
2018-07-20T00:23:55.415Z,0.00
2018-07-20T00:24:55.312Z,0.00
2018-07-20T00:25:55.220Z,0.00
2018-07-20T00:26:55.128Z,0.00
2018-07-20T00:27:55.026Z,0.00
2018-07-20T00:28:54.923Z,0.00
2018-07-20T00:29:54.833Z,0.00
2018-07-20T00:30:54.741Z,0.00
2018-07-20T00:31:54.638Z,0.00
2018-07-20T00:32:54.548Z,0.00
2018-07-20T00:33:54.443Z,0.00
2018-07-20T00:34:54.351Z,0.00
2018-07-20T00:35:54.248Z,0.00
2018-07-20T00:36:54.158Z,0.00
2018-07-20T00:37:54.054Z,0.00
2018-07-20T00:38:53.963Z,0.00
2018-07-20T00:39:53.873Z,0.00
2018-07-20T00:40:53.770Z,0.00
2018-07-20T00:41:53.668Z,0.00
2018-07-20T00:42:53.877Z,0.00
2018-07-20T00:43:53.474Z,0.00
2018-07-20T00:44:53.382Z,0.00
2018-07-20T00:45:53.277Z,0.00
2018-07-20T00:46:53.187Z,0.00
2018-07-20T00:47:53.085Z,0.00
2018-07-20T00:48:52.997Z,0.00
2018-07-20T00:49:52.892Z,0.00
2018-07-20T00:50:52.801Z,0.00
2018-07-20T00:51:52.698Z,0.00
2018-07-20T00:52:52.607Z,0.00
2018-07-20T00:53:52.516Z,0.00
2018-07-20T00:54:52.413Z,0.00
2018-07-20T00:55:52.311Z,0.00
2018-07-20T00:56:52.219Z,0.00
2018-07-20T00:57:52.126Z,0.00
2018-07-20T00:58:52.022Z,0.00
2018-07-20T00:59:51.931Z,0.00
2018-07-20T01:00:51.828Z,0.00
2018-07-20T01:01:51.742Z,0.00
2018-07-20T01:02:51.635Z,0.00
2018-07-20T01:03:51.545Z,0.00
2018-07-20T01:04:51.443Z,0.00
2018-07-20T01:05:51.368Z,0.00
2018-07-20T01:06:51.245Z,0.00
2018-07-20T01:07:51.155Z,0.00
2018-07-20T01:08:51.053Z,0.00
2018-07-20T01:09:50.963Z,0.00
2018-07-20T01:10:50.859Z,0.00
2018-07-20T01:11:50.769Z,0.00
2018-07-20T01:12:50.666Z,0.00
2018-07-20T01:13:50.572Z,0.00
2018-07-20T01:14:50.469Z,0.00
2018-07-20T01:15:50.378Z,0.00
2018-07-20T01:16:50.275Z,0.00
2018-07-20T01:17:50.201Z,0.00
2018-07-20T01:18:50.100Z,0.00
2018-07-20T01:19:49.993Z,0.00
2018-07-20T01:20:49.889Z,0.00
2018-07-20T01:21:49.796Z,0.00
2018-07-20T01:22:49.692Z,0.00
2018-07-20T01:23:49.603Z,0.00
2018-07-20T01:24:49.499Z,0.00
2018-07-20T01:25:49.406Z,0.00
2018-07-20T01:26:49.303Z,0.00
2018-07-20T01:27:49.204Z,0.00
2018-07-20T01:28:49.111Z,0.00
2018-07-20T01:29:49.036Z,0.00
2018-07-20T01:30:48.921Z,0.00
2018-07-20T01:31:48.816Z,0.00
2018-07-20T01:32:48.975Z,0.00
2018-07-20T01:33:48.630Z,0.00
2018-07-20T01:34:48.527Z,0.00
2018-07-20T01:35:48.424Z,0.00
2018-07-20T01:36:48.338Z,0.00
2018-07-20T01:37:48.233Z,0.00
2018-07-20T01:38:48.141Z,0.00
2018-07-20T01:39:48.058Z,0.00
2018-07-20T01:40:47.948Z,0.00
2018-07-20T01:41:47.844Z,0.00
2018-07-20T01:42:48.003Z,0.00
2018-07-20T01:43:47.649Z,0.00
2018-07-20T01:44:47.560Z,0.00
2018-07-20T01:45:47.454Z,0.00
2018-07-20T01:46:47.363Z,0.00
2018-07-20T01:47:47.259Z,0.00
2018-07-20T01:48:47.169Z,0.00
2018-07-20T01:49:47.071Z,0.00
2018-07-20T01:50:46.976Z,0.00
2018-07-20T01:51:46.873Z,0.00
2018-07-20T01:52:46.783Z,0.00
2018-07-20T01:53:46.680Z,0.00
2018-07-20T01:54:46.586Z,0.00
2018-07-20T01:55:46.486Z,0.00
2018-07-20T01:56:46.381Z,0.00
2018-07-20T01:57:46.289Z,0.00
2018-07-20T01:58:46.187Z,0.00
2018-07-20T01:59:46.095Z,0.00
2018-07-20T02:00:45.991Z,0.00
2018-07-20T02:01:45.904Z,0.00
2018-07-20T02:02:46.100Z,0.00
2018-07-20T02:03:45.709Z,0.00
2018-07-20T02:04:45.605Z,0.00
2018-07-20T02:05:45.519Z,0.00
2018-07-20T02:06:45.410Z,0.00
2018-07-20T02:07:45.331Z,0.00
2018-07-20T02:08:45.230Z,0.00
2018-07-20T02:09:45.127Z,0.00
2018-07-20T02:10:45.024Z,0.00
2018-07-20T02:11:44.933Z,0.00
2018-07-20T02:12:44.829Z,0.00
2018-07-20T02:13:44.724Z,0.00
2018-07-20T02:14:44.633Z,0.00
2018-07-20T02:15:44.530Z,0.00
2018-07-20T02:16:44.439Z,0.00
2018-07-20T02:17:44.365Z,0.00
2018-07-20T02:18:44.247Z,0.00
2018-07-20T02:19:44.144Z,0.00
2018-07-20T02:20:44.065Z,0.00
2018-07-20T02:21:43.948Z,0.00
2018-07-20T02:22:43.846Z,0.00
2018-07-20T02:23:43.754Z,0.00
2018-07-20T02:24:43.651Z,0.00
2018-07-20T02:25:43.561Z,0.00
2018-07-20T02:26:43.457Z,4.00
2018-07-20T02:27:43.368Z,4.00
2018-07-20T02:28:43.263Z,4.00
2018-07-20T02:29:43.172Z,0.00
2018-07-20T02:30:43.070Z,4.00
2018-07-20T02:31:42.967Z,4.00
2018-07-20T02:32:43.176Z,4.00
2018-07-20T02:33:42.771Z,4.00
2018-07-20T02:34:42.679Z,4.00
2018-07-20T02:35:42.576Z,8.00
2018-07-20T02:36:42.487Z,8.00
2018-07-20T02:37:42.384Z,8.00
2018-07-20T02:38:42.293Z,12.00
2018-07-20T02:39:42.189Z,12.00
2018-07-20T02:40:42.099Z,12.00
2018-07-20T02:41:41.997Z,12.00
2018-07-20T02:42:41.891Z,16.00
2018-07-20T02:43:41.799Z,16.00
2018-07-20T02:44:41.699Z,20.00
2018-07-20T02:45:41.597Z,24.00
2018-07-20T02:46:41.503Z,24.00
2018-07-20T02:47:41.415Z,24.00
2018-07-20T02:48:41.308Z,32.00
2018-07-20T02:49:41.208Z,36.00
2018-07-20T02:50:41.116Z,40.00
2018-07-20T02:51:41.013Z,44.00
2018-07-20T02:52:40.921Z,48.00
2018-07-20T02:53:40.816Z,56.00
2018-07-20T02:54:40.726Z,64.00
2018-07-20T02:55:40.622Z,68.00
2018-07-20T02:56:40.531Z,76.00
2018-07-20T02:57:40.429Z,80.00
2018-07-20T02:58:40.327Z,92.00
2018-07-20T02:59:40.237Z,100.00
2018-07-20T03:00:40.133Z,112.00
2018-07-20T03:01:40.041Z,116.00
2018-07-20T03:02:39.938Z,132.00
2018-07-20T03:03:39.849Z,140.00
2018-07-20T03:04:39.748Z,152.00
2018-07-20T03:05:39.642Z,164.00
2018-07-20T03:06:39.548Z,180.00
2018-07-20T03:07:39.449Z,196.00
2018-07-20T03:08:39.353Z,212.00
2018-07-20T03:09:39.253Z,224.00
2018-07-20T03:10:39.162Z,240.00
2018-07-20T03:11:39.059Z,256.00
2018-07-20T03:12:38.956Z,272.00
2018-07-20T03:13:38.863Z,292.00
2018-07-20T03:14:38.760Z,312.00
2018-07-20T03:15:38.668Z,328.00
2018-07-20T03:16:38.565Z,348.00
2018-07-20T03:17:38.480Z,368.00
2018-07-20T03:18:38.373Z,392.00
2018-07-20T03:19:38.275Z,412.00
2018-07-20T03:20:38.179Z,436.00
2018-07-20T03:21:38.075Z,460.00
2018-07-20T03:22:37.983Z,484.00
2018-07-20T03:23:37.881Z,508.00
2018-07-20T03:24:37.801Z,536.00
2018-07-20T03:25:37.687Z,564.00
2018-07-20T03:26:37.598Z,592.00
2018-07-20T03:27:37.494Z,616.00
2018-07-20T03:28:37.391Z,648.00
2018-07-20T03:29:37.297Z,676.00
2018-07-20T03:30:37.212Z,704.00
2018-07-20T03:31:37.104Z,740.00
2018-07-20T03:32:37.029Z,772.00
2018-07-20T03:33:36.921Z,804.00
2018-07-20T03:34:36.806Z,840.00
2018-07-20T03:35:36.703Z,880.00
2018-07-20T03:36:36.612Z,912.00
2018-07-20T03:37:36.514Z,952.00
2018-07-20T03:38:36.419Z,988.00
2018-07-20T03:39:36.316Z,1024.00
2018-07-20T03:40:36.227Z,1064.00
2018-07-20T03:41:36.120Z,1104.00
2018-07-20T03:42:36.028Z,1148.00
2018-07-20T03:43:35.925Z,1188.00
2018-07-20T03:44:35.822Z,1224.00
2018-07-20T03:45:35.735Z,1272.00
2018-07-20T03:46:35.631Z,1316.00
2018-07-20T03:47:35.790Z,1356.00
2018-07-20T03:48:35.438Z,1400.00
2018-07-20T03:49:35.346Z,1432.00
2018-07-20T03:50:35.244Z,1472.00
2018-07-20T03:51:35.141Z,1508.00
2018-07-20T03:52:35.055Z,1548.00
2018-07-20T03:53:34.944Z,1588.00
2018-07-20T03:54:34.852Z,1632.00
2018-07-20T03:55:34.749Z,1672.00
2018-07-20T03:56:34.662Z,1716.00
2018-07-20T03:57:34.856Z,1760.00
2018-07-20T03:58:34.482Z,1812.00
2018-07-20T03:59:34.363Z,1860.00
2018-07-20T04:00:34.273Z,1912.00
2018-07-20T04:01:34.166Z,1952.00
2018-07-20T04:02:34.120Z,1988.00
2018-07-20T04:03:33.972Z,2032.00
2018-07-20T04:04:33.870Z,2080.00
2018-07-20T04:05:33.777Z,2112.00
2018-07-20T04:06:33.675Z,2156.00
2018-07-20T04:07:33.584Z,2192.00
2018-07-20T04:08:33.481Z,2232.00
2018-07-20T04:09:33.391Z,2272.00
2018-07-20T04:10:33.290Z,2312.00
2018-07-20T04:11:33.197Z,2352.00
2018-07-20T04:12:33.093Z,2400.00
2018-07-20T04:13:33.001Z,2448.00
2018-07-20T04:14:32.897Z,2500.00
2018-07-20T04:15:32.810Z,2560.00
2018-07-20T04:16:32.705Z,2620.00
2018-07-20T04:17:32.615Z,2664.00
2018-07-20T04:18:32.512Z,2724.00
2018-07-20T04:19:32.422Z,2776.00
2018-07-20T04:20:32.323Z,2800.00
2018-07-20T04:21:32.226Z,2836.00
2018-07-20T04:22:32.127Z,2896.00
2018-07-20T04:23:32.033Z,2964.00
2018-07-20T04:24:31.930Z,3052.00
2018-07-20T04:25:31.836Z,3096.00
2018-07-20T04:26:31.734Z,3100.00
2018-07-20T04:27:31.643Z,3108.00
2018-07-20T04:28:31.552Z,3140.00
2018-07-20T04:29:31.450Z,3180.00
2018-07-20T04:30:31.360Z,3232.00
2018-07-20T04:31:31.256Z,3296.00
2018-07-20T04:32:31.166Z,3380.00
2018-07-20T04:33:31.062Z,3464.00
2018-07-20T04:34:30.970Z,3568.00
2018-07-20T04:35:30.867Z,3708.00
2018-07-20T04:36:30.826Z,3892.00
2018-07-20T04:37:30.686Z,4016.00
2018-07-20T04:38:30.581Z,4196.00
2018-07-20T04:39:30.490Z,4384.00
2018-07-20T04:40:30.386Z,4504.00
2018-07-20T04:41:30.298Z,4588.00
2018-07-20T04:42:30.207Z,4644.00
2018-07-20T04:43:30.104Z,4684.00
2018-07-20T04:44:30.013Z,4748.00
2018-07-20T04:45:29.908Z,4804.00
2018-07-20T04:46:29.829Z,4860.00
2018-07-20T04:47:29.977Z,4940.00
2018-07-20T04:48:29.623Z,4984.00
2018-07-20T04:49:29.534Z,5044.00
2018-07-20T04:50:29.444Z,5044.00
2018-07-20T04:51:29.340Z,5084.00
2018-07-20T04:52:29.249Z,5188.00
2018-07-20T04:53:29.072Z,5288.00
2018-07-20T04:54:28.981Z,5368.00
2018-07-20T04:55:28.890Z,5468.00
2018-07-20T04:56:28.788Z,5504.00
2018-07-20T04:57:28.780Z,5584.00
2018-07-20T04:58:28.691Z,5664.00
2018-07-20T04:59:28.587Z,5680.00
2018-07-20T05:00:28.497Z,5808.00
2018-07-20T05:01:28.408Z,5868.00
2018-07-20T05:02:28.316Z,5936.00
2018-07-20T05:03:28.225Z,5988.00
2018-07-20T05:04:28.123Z,6016.00
2018-07-20T05:05:28.029Z,6080.00
2018-07-20T05:06:27.939Z,6152.00
2018-07-20T05:07:27.848Z,6272.00
2018-07-20T05:08:27.757Z,6452.00
2018-07-20T05:09:27.666Z,6528.00
2018-07-20T05:10:27.580Z,6576.00
2018-07-20T05:11:27.500Z,6600.00
2018-07-20T05:12:27.380Z,6624.00
2018-07-20T05:13:27.292Z,6772.00
2018-07-20T05:14:27.201Z,6832.00
2018-07-20T05:15:27.111Z,6880.00
2018-07-20T05:16:27.020Z,6992.00
2018-07-20T05:17:27.177Z,6856.00
2018-07-20T05:18:26.835Z,7212.00
2018-07-20T05:19:26.746Z,7296.00
2018-07-20T05:20:26.654Z,7508.00
2018-07-20T05:21:26.566Z,7484.00
2018-07-20T05:22:26.475Z,7592.00
2018-07-20T05:23:26.384Z,7400.00
2018-07-20T05:24:26.296Z,7232.00
2018-07-20T05:25:26.201Z,7324.00
2018-07-20T05:26:26.109Z,7248.00
2018-07-20T05:27:26.020Z,7452.00
2018-07-20T05:28:25.927Z,7640.00
2018-07-20T05:29:25.840Z,7556.00
2018-07-20T05:30:25.749Z,8028.00
2018-07-20T05:31:25.659Z,7980.00
2018-07-20T05:32:25.567Z,8032.00
2018-07-20T05:33:25.477Z,8052.00
2018-07-20T05:34:25.383Z,7956.00
2018-07-20T05:35:25.299Z,8388.00
2018-07-20T05:36:25.202Z,7824.00
2018-07-20T05:37:25.113Z,8712.00
2018-07-20T05:38:25.024Z,8936.00
2018-07-20T05:39:24.944Z,8796.00
2018-07-20T05:40:24.854Z,8232.00
2018-07-20T05:41:24.762Z,9704.00
2018-07-20T05:42:24.671Z,9888.00
2018-07-20T05:43:24.580Z,9808.00
2018-07-20T05:44:24.494Z,9852.00
2018-07-20T05:45:24.396Z,9376.00
2018-07-20T05:46:24.307Z,10044.00
2018-07-20T05:47:24.228Z,9844.00
2018-07-20T05:48:24.139Z,9076.00
2018-07-20T05:49:24.049Z,9680.00
2018-07-20T05:50:23.957Z,7620.00
2018-07-20T05:51:23.867Z,7188.00
2018-07-20T05:52:23.776Z,6896.00
2018-07-20T05:53:23.730Z,9180.00
2018-07-20T05:54:23.607Z,9884.00
2018-07-20T05:55:23.513Z,10124.00
2018-07-20T05:56:23.424Z,10212.00
2018-07-20T05:57:23.333Z,10260.00
2018-07-20T05:58:23.256Z,10368.00
2018-07-20T05:59:23.164Z,10396.00
2018-07-20T06:00:23.074Z,10316.00
2018-07-20T06:01:22.985Z,10188.00
2018-07-20T06:02:22.892Z,9960.00
2018-07-20T06:03:22.814Z,8876.00
2018-07-20T06:04:22.724Z,10940.00
2018-07-20T06:05:22.630Z,11120.00
2018-07-20T06:06:22.540Z,11820.00
2018-07-20T06:07:22.457Z,12724.00
2018-07-20T06:08:22.370Z,12088.00
2018-07-20T06:09:22.282Z,13836.00
2018-07-20T06:10:22.191Z,11948.00
2018-07-20T06:11:22.101Z,14040.00
2018-07-20T06:12:22.023Z,12712.00
2018-07-20T06:13:21.931Z,14284.00
2018-07-20T06:14:21.842Z,15048.00
2018-07-20T06:15:21.750Z,14312.00
2018-07-20T06:16:21.671Z,11812.00
2018-07-20T06:17:21.828Z,13968.00
2018-07-20T06:18:21.487Z,12888.00
2018-07-20T06:19:21.409Z,15112.00
2018-07-20T06:20:21.318Z,12720.00
2018-07-20T06:21:21.229Z,11760.00
2018-07-20T06:22:21.151Z,12884.00
2018-07-20T06:23:21.063Z,13504.00
2018-07-20T06:24:20.969Z,13232.00
2018-07-20T06:25:20.879Z,12800.00
2018-07-20T06:26:20.799Z,9316.00
2018-07-20T06:27:20.707Z,13444.00
2018-07-20T06:28:20.617Z,14060.00
2018-07-20T06:29:20.541Z,14744.00
2018-07-20T06:30:20.447Z,12020.00
2018-07-20T06:31:20.357Z,10776.00
2018-07-20T06:32:20.279Z,14396.00
2018-07-20T06:33:20.189Z,14268.00
2018-07-20T06:34:20.099Z,14188.00
2018-07-20T06:35:20.021Z,14680.00
2018-07-20T06:36:19.930Z,14480.00
2018-07-20T06:37:20.088Z,14164.00
2018-07-20T06:38:19.758Z,13820.00
2018-07-20T06:39:19.667Z,13564.00
2018-07-20T06:40:19.577Z,9992.00
2018-07-20T06:41:19.502Z,13812.00
2018-07-20T06:42:19.409Z,12720.00
2018-07-20T06:43:19.320Z,12716.00
2018-07-20T06:44:19.241Z,14928.00
2018-07-20T06:45:19.150Z,15624.00
2018-07-20T06:46:19.071Z,15988.00
2018-07-20T06:47:18.981Z,15800.00
2018-07-20T06:48:18.890Z,15052.00
2018-07-20T06:49:18.809Z,14628.00
2018-07-20T06:50:18.731Z,14516.00
2018-07-20T06:51:18.644Z,14808.00
2018-07-20T06:52:18.550Z,14888.00
2018-07-20T06:53:18.476Z,14980.00
2018-07-20T06:54:18.383Z,15016.00
2018-07-20T06:55:18.296Z,15284.00
2018-07-20T06:56:18.213Z,15544.00
2018-07-20T06:57:18.134Z,15836.00
2018-07-20T06:58:18.046Z,16088.00
2018-07-20T06:59:17.965Z,16052.00
2018-07-20T07:00:17.873Z,15708.00
2018-07-20T07:01:17.782Z,15388.00
2018-07-20T07:02:17.954Z,15860.00
2018-07-20T07:03:17.626Z,16548.00
2018-07-20T07:04:17.534Z,16832.00
2018-07-20T07:05:17.446Z,17024.00
2018-07-20T07:06:17.368Z,17184.00
2018-07-20T07:07:17.276Z,17408.00
2018-07-20T07:08:17.198Z,17600.00
2018-07-20T07:09:17.121Z,17760.00
2018-07-20T07:10:17.027Z,17920.00
2018-07-20T07:11:16.937Z,18016.00
2018-07-20T07:12:16.862Z,18112.00
2018-07-20T07:13:16.771Z,18304.00
2018-07-20T07:14:16.692Z,18656.00
2018-07-20T07:15:16.655Z,18528.00
2018-07-20T07:16:16.521Z,18432.00
2018-07-20T07:17:16.443Z,18336.00
2018-07-20T07:18:16.354Z,18144.00
2018-07-20T07:19:16.275Z,18784.00
2018-07-20T07:20:16.183Z,19552.00
2018-07-20T07:21:16.103Z,20288.00
2018-07-20T07:22:16.037Z,20864.00
2018-07-20T07:23:15.935Z,21600.00
2018-07-20T07:24:15.844Z,23328.00
2018-07-20T07:25:15.768Z,16860.00
2018-07-20T07:26:15.689Z,15548.00
2018-07-20T07:27:15.599Z,21344.00
2018-07-20T07:28:15.520Z,19552.00
2018-07-20T07:29:15.504Z,14552.00
2018-07-20T07:30:15.349Z,13972.00
2018-07-20T07:31:15.258Z,19584.00
2018-07-20T07:32:15.186Z,21216.00
2018-07-20T07:33:15.104Z,23072.00
2018-07-20T07:34:15.013Z,21152.00
2018-07-20T07:35:14.933Z,24192.00
2018-07-20T07:36:14.844Z,25696.00
2018-07-20T07:37:14.764Z,27008.00
2018-07-20T07:38:14.675Z,30176.00
2018-07-20T07:39:14.593Z,33696.00
2018-07-20T07:40:14.504Z,38784.00
2018-07-20T07:41:14.428Z,42624.00
2018-07-20T07:42:14.453Z,46048.00
2018-07-20T07:43:14.258Z,48576.00
2018-07-20T07:44:14.179Z,12460.00
2018-07-20T07:45:14.088Z,11120.00
2018-07-20T07:46:14.009Z,11684.00
2018-07-20T07:47:13.917Z,13032.00
2018-07-20T07:48:13.838Z,43872.00
2018-07-20T07:49:13.775Z,34080.00
2018-07-20T07:50:13.671Z,58432.00
2018-07-20T07:51:13.580Z,61696.00
2018-07-20T07:52:13.501Z,65216.00
2018-07-20T07:53:13.425Z,69376.00
2018-07-20T07:54:13.335Z,74048.00
2018-07-20T07:55:13.256Z,76448.00
2018-07-20T07:56:13.167Z,81504.00
2018-07-20T07:57:13.084Z,84896.00
2018-07-20T07:58:12.993Z,89888.00
2018-07-20T07:59:12.916Z,95200.00
2018-07-20T08:00:12.827Z,101696.00
2018-07-20T08:01:12.749Z,113792.00
2018-07-20T08:02:12.657Z,118112.00
2018-07-20T08:03:12.641Z,115264.00
2018-07-20T08:04:12.490Z,100128.00
2018-07-20T08:05:12.410Z,91808.00
2018-07-20T08:06:12.331Z,81216.00
2018-07-20T08:07:12.245Z,75488.00
2018-07-20T08:08:12.163Z,57984.00
2018-07-20T08:09:12.070Z,37472.00
2018-07-20T08:10:12.005Z,19808.00
2018-07-20T08:11:11.913Z,16228.00
2018-07-20T08:12:11.822Z,15976.00
2018-07-20T08:13:11.747Z,15952.00
2018-07-20T08:14:11.656Z,16144.00
2018-07-20T08:15:11.578Z,16460.00
2018-07-20T08:16:11.486Z,16888.00
2018-07-20T08:17:11.411Z,16948.00
2018-07-20T08:18:11.315Z,17012.00
2018-07-20T08:19:11.236Z,16564.00
2018-07-20T08:20:11.147Z,15832.00
2018-07-20T08:21:11.068Z,15556.00
2018-07-20T08:22:10.977Z,15716.00
2018-07-20T08:23:10.887Z,15980.00
2018-07-20T08:24:10.807Z,16132.00
2018-07-20T08:25:10.719Z,16252.00
2018-07-20T08:26:10.653Z,16224.00
2018-07-20T08:27:10.585Z,16280.00
2018-07-20T08:28:10.459Z,16376.00
2018-07-20T08:29:10.378Z,16264.00
2018-07-20T08:30:10.288Z,16068.00
2018-07-20T08:31:10.210Z,16052.00
2018-07-20T08:32:10.121Z,16264.00
2018-07-20T08:33:10.030Z,16580.00
2018-07-20T08:34:09.940Z,16960.00
2018-07-20T08:35:09.862Z,17220.00
2018-07-20T08:36:09.770Z,17400.00
2018-07-20T08:37:09.678Z,17648.00
2018-07-20T08:38:09.601Z,17688.00
2018-07-20T08:39:09.510Z,18048.00
2018-07-20T08:40:09.418Z,18080.00
2018-07-20T08:41:09.367Z,17884.00
2018-07-20T08:42:09.248Z,17476.00
2018-07-20T08:43:09.156Z,17220.00
2018-07-20T08:44:09.067Z,17140.00
2018-07-20T08:45:08.990Z,17216.00
2018-07-20T08:46:08.888Z,17520.00
2018-07-20T08:47:08.809Z,19168.00
2018-07-20T08:48:08.717Z,25056.00
2018-07-20T08:49:08.625Z,36768.00
2018-07-20T08:50:08.534Z,46816.00
2018-07-20T08:51:08.444Z,50432.00
2018-07-20T08:52:08.366Z,49120.00
2018-07-20T08:53:08.274Z,47232.00
2018-07-20T08:54:08.201Z,46496.00
2018-07-20T08:55:08.093Z,49600.00
2018-07-20T08:56:08.014Z,51872.00
2018-07-20T08:57:07.930Z,46208.00
2018-07-20T08:58:07.834Z,48032.00
2018-07-20T08:59:07.788Z,36736.00
2018-07-20T09:00:07.667Z,51872.00
2018-07-20T09:01:07.573Z,52192.00
2018-07-20T09:02:07.510Z,51008.00
2018-07-20T09:03:07.405Z,52480.00
2018-07-20T09:04:07.325Z,53376.00
2018-07-20T09:05:07.236Z,53920.00
2018-07-20T09:06:07.158Z,53792.00
2018-07-20T09:07:07.068Z,54240.00
2018-07-20T09:08:06.978Z,55776.00
2018-07-20T09:09:06.899Z,53888.00
2018-07-20T09:10:06.824Z,49856.00
2018-07-20T09:11:06.731Z,47520.00
2018-07-20T09:12:06.651Z,55520.00
2018-07-20T09:13:06.560Z,59360.00
2018-07-20T09:14:06.481Z,59616.00
2018-07-20T09:15:06.401Z,62336.00
2018-07-20T09:16:06.312Z,62144.00
2018-07-20T09:17:06.236Z,60480.00
2018-07-20T09:18:06.144Z,58528.00
2018-07-20T09:19:06.067Z,57824.00
2018-07-20T09:20:05.988Z,56608.00
2018-07-20T09:21:05.974Z,54528.00
2018-07-20T09:22:05.821Z,54016.00
2018-07-20T09:23:05.738Z,51488.00
2018-07-20T09:24:05.691Z,48352.00
2018-07-20T09:25:05.571Z,51904.00
2018-07-20T09:26:05.493Z,50368.00
2018-07-20T09:27:05.411Z,49888.00
2018-07-20T09:28:05.321Z,51296.00
2018-07-20T09:29:05.246Z,51584.00
2018-07-20T09:30:05.167Z,51808.00
2018-07-20T09:31:05.077Z,50656.00
2018-07-20T09:32:04.997Z,51520.00
2018-07-20T09:33:04.918Z,52000.00
2018-07-20T09:34:04.878Z,53088.00
2018-07-20T09:35:04.762Z,53888.00
2018-07-20T09:36:04.671Z,53600.00
2018-07-20T09:37:04.594Z,53792.00
2018-07-20T09:38:04.516Z,53600.00
2018-07-20T09:39:04.439Z,52992.00
2018-07-20T09:40:04.360Z,53440.00
2018-07-20T09:41:04.267Z,54400.00
2018-07-20T09:42:04.189Z,53792.00
2018-07-20T09:43:04.109Z,53504.00
2018-07-20T09:44:04.044Z,53728.00
2018-07-20T09:45:03.954Z,54208.00
2018-07-20T09:46:03.876Z,55008.00
2018-07-20T09:47:03.786Z,54656.00
2018-07-20T09:48:03.708Z,53824.00
2018-07-20T09:49:03.687Z,54112.00
2018-07-20T09:50:03.549Z,54240.00
2018-07-20T09:51:03.471Z,53344.00
2018-07-20T09:52:03.395Z,54208.00
2018-07-20T09:53:03.316Z,54080.00
2018-07-20T09:54:03.239Z,53216.00
2018-07-20T09:55:03.159Z,53056.00
2018-07-20T09:56:03.068Z,51904.00
2018-07-20T09:57:02.992Z,47776.00
2018-07-20T09:58:02.911Z,50720.00
2018-07-20T09:59:02.836Z,49472.00
2018-07-20T10:00:02.756Z,48128.00
2018-07-20T10:01:02.675Z,49248.00
2018-07-20T10:02:02.597Z,47520.00
2018-07-20T10:03:02.518Z,48736.00
2018-07-20T10:04:02.440Z,49856.00
2018-07-20T10:05:02.400Z,49760.00
2018-07-20T10:06:02.298Z,49184.00
2018-07-20T10:07:02.206Z,46624.00
2018-07-20T10:08:02.128Z,46880.00
2018-07-20T10:09:02.048Z,45920.00
2018-07-20T10:10:01.959Z,45024.00
2018-07-20T10:11:01.891Z,45344.00
2018-07-20T10:12:01.801Z,41696.00
2018-07-20T10:13:01.723Z,44864.00
2018-07-20T10:14:01.645Z,44736.00
2018-07-20T10:15:01.568Z,44160.00
2018-07-20T10:16:01.488Z,44320.00
2018-07-20T10:17:01.412Z,45152.00
2018-07-20T10:18:01.333Z,45376.00
2018-07-20T10:19:01.327Z,61024.00
2018-07-20T10:20:01.177Z,104736.00
2018-07-20T10:21:01.096Z,150112.00
2018-07-20T10:22:01.019Z,162112.00
2018-07-20T10:23:00.940Z,146176.00
2018-07-20T10:24:00.852Z,132448.00
2018-07-20T10:25:00.773Z,130464.00
2018-07-20T10:26:00.695Z,127680.00
2018-07-20T10:27:00.616Z,120512.00
2018-07-20T10:28:00.537Z,119904.00
2018-07-20T10:29:00.461Z,117408.00
2018-07-20T10:30:00.392Z,120288.00
2018-07-20T10:31:00.302Z,120736.00
2018-07-20T10:32:00.225Z,120736.00
2018-07-20T10:33:00.142Z,121216.00
2018-07-20T10:34:00.067Z,121376.00
2018-07-20T10:34:59.986Z,121312.00
2018-07-20T10:35:59.916Z,120096.00
2018-07-20T10:36:59.832Z,118496.00
2018-07-20T10:37:59.754Z,120320.00
2018-07-20T10:38:59.675Z,117600.00
2018-07-20T10:39:59.600Z,115552.00
2018-07-20T10:40:59.530Z,42624.00
2018-07-20T10:41:59.452Z,113344.00
2018-07-20T10:42:59.373Z,117536.00
2018-07-20T10:43:59.294Z,119552.00
2018-07-20T10:44:59.218Z,118400.00
2018-07-20T10:45:59.140Z,100032.00
2018-07-20T10:46:59.110Z,98976.00
2018-07-20T10:47:58.986Z,97728.00
2018-07-20T10:48:58.905Z,97952.00
2018-07-20T10:49:58.825Z,97824.00
2018-07-20T10:50:58.746Z,105056.00
2018-07-20T10:51:58.697Z,103392.00
2018-07-20T10:52:58.604Z,98720.00
2018-07-20T10:53:58.525Z,96512.00
2018-07-20T10:54:58.447Z,97088.00
2018-07-20T10:55:58.381Z,82528.00
2018-07-20T10:56:58.289Z,104736.00
2018-07-20T10:57:58.209Z,51648.00
2018-07-20T10:58:58.132Z,106656.00
2018-07-20T10:59:58.054Z,106144.00
2018-07-20T11:00:57.976Z,105472.00
2018-07-20T11:01:58.161Z,101088.00
2018-07-20T11:02:57.832Z,100928.00
2018-07-20T11:03:57.754Z,102272.00
2018-07-20T11:04:57.677Z,100992.00
2018-07-20T11:05:57.599Z,100512.00
2018-07-20T11:06:57.520Z,96128.00
2018-07-20T11:07:57.449Z,23008.00
2018-07-20T11:08:57.362Z,27488.00
2018-07-20T11:09:57.284Z,89248.00
2018-07-20T11:10:57.205Z,62464.00
2018-07-20T11:11:57.126Z,51360.00
2018-07-20T11:12:57.056Z,25664.00
2018-07-20T11:13:56.984Z,49408.00
2018-07-20T11:14:56.894Z,23872.00
2018-07-20T11:15:56.820Z,25600.00
2018-07-20T11:16:56.738Z,19264.00
2018-07-20T11:17:56.597Z,18760.00
2018-07-20T11:18:56.505Z,101376.00
2018-07-20T11:19:56.415Z,102752.00
2018-07-20T11:20:56.335Z,101568.00
2018-07-20T11:21:56.258Z,101888.00
2018-07-20T11:22:56.177Z,102720.00
2018-07-20T11:23:56.099Z,92992.00
2018-07-20T11:24:56.023Z,69536.00
2018-07-20T11:25:56.022Z,100000.00
2018-07-20T11:26:55.941Z,99648.00
2018-07-20T11:27:55.878Z,97280.00
2018-07-20T11:28:55.784Z,97728.00
2018-07-20T11:29:55.703Z,104256.00
2018-07-20T11:30:55.625Z,110208.00
2018-07-20T11:31:55.546Z,119488.00
2018-07-20T11:32:55.469Z,117472.00
2018-07-20T11:33:55.378Z,86016.00
2018-07-20T11:34:55.300Z,25664.00
2018-07-20T11:35:55.222Z,21888.00
2018-07-20T11:36:55.146Z,24416.00
2018-07-20T11:37:55.068Z,23488.00
2018-07-20T11:38:54.989Z,25216.00
2018-07-20T11:39:54.910Z,23072.00
2018-07-20T11:40:54.831Z,23104.00
2018-07-20T11:41:54.778Z,15264.00
2018-07-20T11:42:54.661Z,13084.00
2018-07-20T11:43:54.583Z,12524.00
2018-07-20T11:44:54.509Z,15400.00
2018-07-20T11:45:54.416Z,16268.00
2018-07-20T11:46:54.337Z,17068.00
2018-07-20T11:47:54.259Z,21056.00
2018-07-20T11:48:54.167Z,23648.00
2018-07-20T11:49:54.114Z,23808.00
2018-07-20T11:50:54.011Z,25376.00
2018-07-20T11:51:53.919Z,24832.00
2018-07-20T11:52:53.844Z,24480.00
2018-07-20T11:53:53.765Z,22240.00
2018-07-20T11:54:53.672Z,20640.00
2018-07-20T11:55:53.633Z,19456.00
2018-07-20T11:56:53.502Z,18176.00
2018-07-20T11:57:53.424Z,17064.00
2018-07-20T11:58:53.332Z,17632.00
2018-07-20T11:59:53.254Z,16252.00
2018-07-20T12:00:53.169Z,15716.00
2018-07-20T12:01:53.111Z,15920.00
2018-07-20T12:02:52.997Z,16152.00
2018-07-20T12:03:52.918Z,16076.00
2018-07-20T12:04:52.828Z,16564.00
2018-07-20T12:05:52.749Z,17664.00
2018-07-20T12:06:52.687Z,19232.00
2018-07-20T12:07:52.583Z,19104.00
2018-07-20T12:08:52.488Z,20576.00